createdAt,value
2018-12-07T00:00:07.249Z,100436.41
2018-12-07T00:00:38.351Z,100434.67
2018-12-07T00:01:09.457Z,100430.40
2018-12-07T00:01:40.578Z,100428.53
2018-12-07T00:02:11.699Z,100437.17
2018-12-07T00:02:42.820Z,100434.48
2018-12-07T00:03:13.958Z,100438.36
2018-12-07T00:03:45.077Z,100443.06
2018-12-07T00:04:16.206Z,100432.34
2018-12-07T00:04:47.354Z,100438.79
2018-12-07T00:05:18.471Z,100430.23
2018-12-07T00:05:49.634Z,100431.88
2018-12-07T00:06:20.769Z,100432.34
2018-12-07T00:06:51.872Z,100430.66
2018-12-07T00:07:22.978Z,100426.78
2018-12-07T00:07:54.085Z,100428.53
2018-12-07T00:08:25.189Z,100427.28
2018-12-07T00:08:56.281Z,100435.04
2018-12-07T00:09:27.399Z,100429.05
2018-12-07T00:09:58.541Z,100428.72
2018-12-07T00:10:29.645Z,100430.49
2018-12-07T00:11:00.774Z,100433.95
2018-12-07T00:11:31.922Z,100430.98
2018-12-07T00:12:03.038Z,100429.21
2018-12-07T00:12:34.157Z,100436.05
2018-12-07T00:13:05.270Z,100430.89
2018-12-07T00:13:36.444Z,100433.84
2018-12-07T00:14:07.564Z,100431.77
2018-12-07T00:14:38.690Z,100432.63
2018-12-07T00:15:09.803Z,100430.83
2018-12-07T00:15:40.958Z,100431.77
2018-12-07T00:16:12.056Z,100430.92
2018-12-07T00:16:43.160Z,100429.64
2018-12-07T00:17:14.274Z,100427.44
2018-12-07T00:17:45.386Z,100433.48
2018-12-07T00:18:16.529Z,100432.56
2018-12-07T00:18:47.642Z,100434.25
2018-12-07T00:19:18.746Z,100434.67
2018-12-07T00:19:49.855Z,100435.13
2018-12-07T00:20:20.955Z,100430.89
2018-12-07T00:20:52.062Z,100427.08
2018-12-07T00:21:23.166Z,100427.59
2018-12-07T00:21:54.260Z,100434.56
2018-12-07T00:22:25.356Z,100425.59
2018-12-07T00:22:56.499Z,100428.55
2018-12-07T00:23:27.617Z,100431.60
2018-12-07T00:23:58.751Z,100439.23
2018-12-07T00:24:29.874Z,100432.36
2018-12-07T00:25:00.975Z,100432.76
2018-12-07T00:25:32.087Z,100431.88
2018-12-07T00:26:03.200Z,100431.44
2018-12-07T00:26:34.322Z,100431.05
2018-12-07T00:27:05.442Z,100429.70
2018-12-07T00:27:36.579Z,100420.17
2018-12-07T00:28:07.683Z,100430.09
2018-12-07T00:28:38.812Z,100430.56
2018-12-07T00:29:09.921Z,100424.51
2018-12-07T00:29:41.032Z,100434.41
2018-12-07T00:30:12.145Z,100427.50
2018-12-07T00:30:43.255Z,100426.95
2018-12-07T00:31:14.402Z,100427.92
2018-12-07T00:31:45.575Z,100428.36
2018-12-07T00:32:16.743Z,100434.77
2018-12-07T00:32:47.890Z,100428.39
2018-12-07T00:33:19.062Z,100434.41
2018-12-07T00:33:50.193Z,100438.68
2018-12-07T00:34:21.347Z,100431.38
2018-12-07T00:34:52.561Z,100433.13
2018-12-07T00:35:23.709Z,100430.98
2018-12-07T00:35:54.871Z,100430.09
2018-12-07T00:36:26.001Z,100436.02
2018-12-07T00:36:57.155Z,100439.44
2018-12-07T00:37:28.317Z,100441.19
2018-12-07T00:37:59.440Z,100439.44
2018-12-07T00:38:30.646Z,100437.77
2018-12-07T00:39:01.787Z,100436.87
2018-12-07T00:39:32.905Z,100439.87
2018-12-07T00:40:04.009Z,100438.52
2018-12-07T00:40:35.138Z,100437.66
2018-12-07T00:41:06.245Z,100435.06
2018-12-07T00:41:37.392Z,100439.41
2018-12-07T00:42:08.480Z,100432.17
2018-12-07T00:42:39.579Z,100435.13
2018-12-07T00:43:10.710Z,100433.39
2018-12-07T00:43:41.841Z,100430.83
2018-12-07T00:44:12.964Z,100427.92
2018-12-07T00:44:44.077Z,100431.38
2018-12-07T00:45:15.199Z,100427.53
2018-12-07T00:45:46.321Z,100429.55
2018-12-07T00:46:17.497Z,100433.84
2018-12-07T00:46:48.597Z,100428.33
2018-12-07T00:47:19.709Z,100422.73
2018-12-07T00:47:50.866Z,100429.61
2018-12-07T00:48:21.983Z,100422.31
2018-12-07T00:48:53.137Z,100421.48
2018-12-07T00:49:24.244Z,100414.61
2018-12-07T00:49:55.353Z,100422.00
2018-12-07T00:50:26.460Z,100419.02
2018-12-07T00:50:59.120Z,100422.47
2018-12-07T00:51:30.297Z,100425.48
2018-12-07T00:52:01.428Z,100427.23
2018-12-07T00:52:32.630Z,100424.20
2018-12-07T00:53:03.803Z,100424.63
2018-12-07T00:53:34.930Z,100426.41
2018-12-07T00:54:06.035Z,100421.21
2018-12-07T00:54:37.151Z,100427.30
2018-12-07T00:55:08.293Z,100428.58
2018-12-07T00:55:39.397Z,100423.02
2018-12-07T00:56:10.497Z,100425.12
2018-12-07T00:56:41.648Z,100417.83
2018-12-07T00:57:12.769Z,100423.28
2018-12-07T00:57:43.880Z,100422.41
2018-12-07T00:58:14.978Z,100420.23
2018-12-07T00:58:46.072Z,100423.66
2018-12-07T00:59:17.195Z,100421.84
2018-12-07T00:59:48.297Z,100423.92
2018-12-07T01:00:19.424Z,100420.37
2018-12-07T01:00:50.565Z,100421.62
2018-12-07T01:01:21.733Z,100424.98
2018-12-07T01:01:52.917Z,100423.23
2018-12-07T01:02:24.012Z,100424.06
2018-12-07T01:02:55.142Z,100424.52
2018-12-07T01:03:26.241Z,100429.62
2018-12-07T01:03:57.353Z,100424.48
2018-12-07T01:04:28.449Z,100428.37
2018-12-07T01:04:59.553Z,100433.50
2018-12-07T01:05:30.665Z,100426.16
2018-12-07T01:06:01.912Z,100425.31
2018-12-07T01:06:33.066Z,100420.18
2018-12-07T01:07:04.172Z,100420.18
2018-12-07T01:07:35.325Z,100421.83
2018-12-07T01:08:06.437Z,100420.55
2018-12-07T01:08:37.543Z,100429.98
2018-12-07T01:09:08.664Z,100416.59
2018-12-07T01:09:39.769Z,100423.08
2018-12-07T01:10:10.924Z,100422.58
2018-12-07T01:10:42.044Z,100425.61
2018-12-07T01:11:13.163Z,100425.61
2018-12-07T01:11:45.366Z,100420.94
2018-12-07T01:12:16.494Z,100420.51
2018-12-07T01:12:47.617Z,100414.59
2018-12-07T01:13:18.761Z,100423.96
2018-12-07T01:13:49.870Z,100418.28
2018-12-07T01:14:21.060Z,100422.25
2018-12-07T01:14:52.378Z,100415.02
2018-12-07T01:15:23.499Z,100421.39
2018-12-07T01:15:54.661Z,100420.11
2018-12-07T01:16:25.774Z,100420.48
2018-12-07T01:16:56.893Z,100414.50
2018-12-07T01:17:28.042Z,100415.78
2018-12-07T01:17:59.155Z,100414.92
2018-12-07T01:18:30.277Z,100412.84
2018-12-07T01:19:01.419Z,100411.50
2018-12-07T01:19:32.543Z,100411.50
2018-12-07T01:20:03.667Z,100412.36
2018-12-07T01:20:34.781Z,100413.97
2018-12-07T01:21:05.932Z,100419.09
2018-12-07T01:21:37.083Z,100416.47
2018-12-07T01:22:08.204Z,100419.03
2018-12-07T01:22:39.311Z,100422.52
2018-12-07T01:23:10.436Z,100421.59
2018-12-07T01:23:41.614Z,100418.50
2018-12-07T01:24:12.715Z,100416.37
2018-12-07T01:24:43.885Z,100418.50
2018-12-07T01:25:14.997Z,100415.94
2018-12-07T01:25:46.102Z,100417.22
2018-12-07T01:26:17.225Z,100412.00
2018-12-07T01:26:48.339Z,100416.34
2018-12-07T01:27:19.441Z,100409.07
2018-12-07T01:27:50.607Z,100414.09
2018-12-07T01:28:21.730Z,100409.77
2018-12-07T01:28:52.871Z,100413.54
2018-12-07T01:29:24.145Z,100407.03
2018-12-07T01:29:55.263Z,100410.09
2018-12-07T01:30:26.396Z,100407.95
2018-12-07T01:30:57.528Z,100406.24
2018-12-07T01:31:28.643Z,100404.53
2018-12-07T01:31:59.799Z,100405.39
2018-12-07T01:32:30.954Z,100407.45
2018-12-07T01:33:02.110Z,100404.89
2018-12-07T01:33:33.290Z,100403.97
2018-12-07T01:34:04.411Z,100405.72
2018-12-07T01:34:35.577Z,100403.97
2018-12-07T01:35:06.689Z,100407.75
2018-12-07T01:35:37.850Z,100405.16
2018-12-07T01:36:08.970Z,100408.89
2018-12-07T01:36:40.082Z,100403.80
2018-12-07T01:37:11.184Z,100405.09
2018-12-07T01:37:42.291Z,100397.83
2018-12-07T01:38:13.442Z,100399.50
2018-12-07T01:38:44.599Z,100403.73
2018-12-07T01:39:15.712Z,100402.95
2018-12-07T01:39:46.821Z,100408.93
2018-12-07T01:40:17.943Z,100399.50
2018-12-07T01:40:49.099Z,100399.11
2018-12-07T01:41:20.206Z,100404.73
2018-12-07T01:41:51.329Z,100404.73
2018-12-07T01:42:22.431Z,100402.52
2018-12-07T01:42:53.554Z,100405.52
2018-12-07T01:43:24.709Z,100403.70
2018-12-07T01:43:55.816Z,100402.75
2018-12-07T01:44:26.978Z,100398.91
2018-12-07T01:44:58.088Z,100369.42
2018-12-07T01:45:29.210Z,100403.70
2018-12-07T01:46:00.331Z,100397.72
2018-12-07T01:46:31.450Z,100398.61
2018-12-07T01:47:02.565Z,100397.33
2018-12-07T01:47:33.716Z,100401.17
2018-12-07T01:48:04.824Z,100400.35
2018-12-07T01:48:35.973Z,100399.07
2018-12-07T01:49:07.096Z,100396.87
2018-12-07T01:49:38.220Z,100396.05
2018-12-07T01:50:09.346Z,100396.05
2018-12-07T01:50:40.458Z,100395.16
2018-12-07T01:51:11.568Z,100401.17
2018-12-07T01:51:42.723Z,100397.69
2018-12-07T01:52:13.839Z,100395.12
2018-12-07T01:52:44.954Z,100393.38
2018-12-07T01:53:16.060Z,100387.38
2018-12-07T01:53:47.184Z,100398.94
2018-12-07T01:54:18.292Z,100394.66
2018-12-07T01:54:49.414Z,100391.70
2018-12-07T01:55:20.582Z,100390.42
2018-12-07T01:55:51.928Z,100388.26
2018-12-07T01:56:23.094Z,100387.41
2018-12-07T01:56:55.080Z,100387.90
2018-12-07T01:57:26.233Z,100387.08
2018-12-07T01:57:57.381Z,100393.95
2018-12-07T01:58:28.560Z,100389.64
2018-12-07T01:58:59.683Z,100387.54
2018-12-07T01:59:30.808Z,100395.76
2018-12-07T02:00:01.962Z,100385.97
2018-12-07T02:00:33.058Z,100389.41
2018-12-07T02:01:04.157Z,100390.27
2018-12-07T02:01:35.273Z,100385.17
2018-12-07T02:02:06.392Z,100386.92
2018-12-07T02:02:37.496Z,100380.91
2018-12-07T02:03:08.623Z,100383.93
2018-12-07T02:03:39.724Z,100387.80
2018-12-07T02:04:10.829Z,100378.44
2018-12-07T02:04:41.933Z,100386.59
2018-12-07T02:05:13.069Z,100383.53
2018-12-07T02:05:44.176Z,100384.39
2018-12-07T02:06:15.282Z,100385.70
2018-12-07T02:06:46.387Z,100391.29
2018-12-07T02:07:17.488Z,100385.73
2018-12-07T02:07:48.600Z,100380.55
2018-12-07T02:08:19.709Z,100389.58
2018-12-07T02:08:50.826Z,100388.69
2018-12-07T02:09:21.958Z,100385.21
2018-12-07T02:09:53.086Z,100388.98
2018-12-07T02:10:24.253Z,100390.99
2018-12-07T02:10:55.371Z,100384.12
2018-12-07T02:11:26.501Z,100384.48
2018-12-07T02:11:57.610Z,100388.72
2018-12-07T02:12:28.730Z,100387.83
2018-12-07T02:12:59.865Z,100386.16
2018-12-07T02:13:31.015Z,100384.06
2018-12-07T02:14:02.154Z,100389.18
2018-12-07T02:14:33.282Z,100387.44
2018-12-07T02:15:04.410Z,100382.70
2018-12-07T02:15:35.565Z,100378.80
2018-12-07T02:16:06.676Z,100385.63
2018-12-07T02:16:37.792Z,100388.59
2018-12-07T02:17:08.915Z,100383.89
2018-12-07T02:17:40.030Z,100386.91
2018-12-07T02:18:11.166Z,100385.63
2018-12-07T02:18:42.308Z,100385.59
2018-12-07T02:19:13.474Z,100390.75
2018-12-07T02:19:44.616Z,100389.97
2018-12-07T02:20:15.748Z,100384.84
2018-12-07T02:20:46.868Z,100390.92
2018-12-07T02:21:17.995Z,100384.98
2018-12-07T02:21:49.155Z,100391.38
2018-12-07T02:22:20.285Z,100394.91
2018-12-07T02:22:51.404Z,100390.20
2018-12-07T02:23:22.519Z,100392.77
2018-12-07T02:23:53.619Z,100396.25
2018-12-07T02:24:24.732Z,100390.70
2018-12-07T02:24:55.854Z,100387.70
2018-12-07T02:25:27.000Z,100386.42
2018-12-07T02:25:58.117Z,100380.84
2018-12-07T02:26:29.217Z,100379.13
2018-12-07T02:27:00.889Z,100380.02
2018-12-07T02:27:32.276Z,100380.91
2018-12-07T02:28:03.384Z,100381.33
2018-12-07T02:28:34.512Z,100377.95
2018-12-07T02:29:05.642Z,100380.45
2018-12-07T02:29:36.796Z,100377.45
2018-12-07T02:30:07.906Z,100377.36
2018-12-07T02:30:39.032Z,100371.77
2018-12-07T02:31:10.169Z,100370.48
2018-12-07T02:31:41.291Z,100371.70
2018-12-07T02:32:12.436Z,100368.68
2018-12-07T02:32:43.548Z,100373.45
2018-12-07T02:33:14.657Z,100376.80
2018-12-07T02:33:45.769Z,100378.47
2018-12-07T02:34:16.898Z,100375.91
2018-12-07T02:34:48.014Z,100373.73
2018-12-07T02:35:19.136Z,100378.86
2018-12-07T02:35:50.281Z,100368.97
2018-12-07T02:36:21.403Z,100377.94
2018-12-07T02:36:52.541Z,100371.89
2018-12-07T02:37:23.665Z,100371.01
2018-12-07T02:37:54.793Z,100377.80
2018-12-07T02:38:25.934Z,100371.83
2018-12-07T02:38:57.113Z,100368.38
2018-12-07T02:39:28.240Z,100363.19
2018-12-07T02:39:59.369Z,100366.60
2018-12-07T02:40:30.485Z,100367.84
2018-12-07T02:41:01.601Z,100367.42
2018-12-07T02:41:32.718Z,100363.51
2018-12-07T02:42:03.872Z,100363.05
2018-12-07T02:42:35.025Z,100364.27
2018-12-07T02:43:06.275Z,100365.08
2018-12-07T02:43:37.408Z,100367.18
2018-12-07T02:44:08.517Z,100365.38
2018-12-07T02:44:39.665Z,100365.66
2018-12-07T02:45:10.832Z,100362.21
2018-12-07T02:45:41.954Z,100365.23
2018-12-07T02:46:13.084Z,100359.69
2018-12-07T02:46:44.244Z,100358.41
2018-12-07T02:47:15.362Z,100364.81
2018-12-07T02:47:46.482Z,100362.64
2018-12-07T02:48:17.601Z,100363.03
2018-12-07T02:48:48.721Z,100357.88
2018-12-07T02:49:19.828Z,100361.72
2018-12-07T02:49:50.993Z,100367.69
2018-12-07T02:50:22.129Z,100359.16
2018-12-07T02:50:53.249Z,100362.64
2018-12-07T02:51:24.367Z,100357.88
2018-12-07T02:51:55.509Z,100359.94
2018-12-07T02:52:26.618Z,100364.23
2018-12-07T02:52:57.728Z,100359.97
2018-12-07T02:53:28.847Z,100362.50
2018-12-07T02:53:59.981Z,100362.96
2018-12-07T02:54:31.108Z,100365.09
2018-12-07T02:55:02.269Z,100362.14
2018-12-07T02:55:33.393Z,100363.31
2018-12-07T02:56:04.502Z,100360.75
2018-12-07T02:56:35.630Z,100364.13
2018-12-07T02:57:06.783Z,100365.81
2018-12-07T02:57:37.897Z,100366.63
2018-12-07T02:58:09.029Z,100365.73
2018-12-07T02:58:40.141Z,100371.78
2018-12-07T02:59:11.253Z,100371.28
2018-12-07T02:59:42.356Z,100364.45
2018-12-07T03:00:13.493Z,100372.60
2018-12-07T03:00:44.600Z,100366.13
2018-12-07T03:01:15.725Z,100372.53
2018-12-07T03:01:46.888Z,100372.53
2018-12-07T03:02:18.005Z,100367.02
2018-12-07T03:02:49.134Z,100365.31
2018-12-07T03:03:20.237Z,100364.92
2018-12-07T03:03:51.351Z,100367.55
2018-12-07T03:04:22.535Z,100371.89
2018-12-07T03:04:53.650Z,100370.61
2018-12-07T03:05:24.757Z,100374.45
2018-12-07T03:05:55.876Z,100369.33
2018-12-07T03:06:26.993Z,100366.77
2018-12-07T03:06:58.173Z,100371.95
2018-12-07T03:07:29.361Z,100372.78
2018-12-07T03:08:00.497Z,100372.81
2018-12-07T03:08:32.527Z,100371.95
2018-12-07T03:09:03.628Z,100370.78
2018-12-07T03:09:34.741Z,100367.33
2018-12-07T03:10:05.900Z,100371.28
2018-12-07T03:10:37.013Z,100371.67
2018-12-07T03:11:08.185Z,100372.23
2018-12-07T03:11:39.289Z,100374.83
2018-12-07T03:12:10.417Z,100370.56
2018-12-07T03:12:41.551Z,100371.02
2018-12-07T03:13:12.668Z,100371.45
2018-12-07T03:13:43.784Z,100373.95
2018-12-07T03:14:15.654Z,100373.88
2018-12-07T03:14:47.398Z,100372.09
2018-12-07T03:15:18.501Z,100372.95
2018-12-07T03:15:49.634Z,100371.03
2018-12-07T03:16:20.741Z,100366.52
2018-12-07T03:16:51.889Z,100372.53
2018-12-07T03:17:23.039Z,100374.16
2018-12-07T03:17:54.152Z,100378.05
2018-12-07T03:18:25.257Z,100378.11
2018-12-07T03:18:56.382Z,100379.00
2018-12-07T03:19:27.490Z,100374.34
2018-12-07T03:19:58.604Z,100374.77
2018-12-07T03:20:29.728Z,100376.16
2018-12-07T03:21:00.861Z,100376.16
2018-12-07T03:21:31.969Z,100373.20
2018-12-07T03:22:03.082Z,100372.78
2018-12-07T03:22:34.225Z,100370.25
2018-12-07T03:23:05.335Z,100365.56
2018-12-07T03:23:36.453Z,100367.76
2018-12-07T03:24:07.572Z,100369.89
2018-12-07T03:24:38.744Z,100371.60
2018-12-07T03:25:09.861Z,100375.44
2018-12-07T03:25:41.015Z,100370.72
2018-12-07T03:26:12.137Z,100368.08
2018-12-07T03:26:43.287Z,100367.98
2018-12-07T03:27:14.413Z,100370.04
2018-12-07T03:27:45.528Z,100373.03
2018-12-07T03:28:16.647Z,100370.36
2018-12-07T03:28:47.751Z,100369.08
2018-12-07T03:29:18.871Z,100369.97
2018-12-07T03:29:49.985Z,100372.14
2018-12-07T03:30:21.130Z,100372.56
2018-12-07T03:30:52.970Z,100379.43
2018-12-07T03:31:24.092Z,100343.41
2018-12-07T03:31:55.212Z,100377.66
2018-12-07T03:32:26.350Z,100376.69
2018-12-07T03:32:57.491Z,100378.83
2018-12-07T03:33:28.618Z,100377.19
2018-12-07T03:33:59.731Z,100373.70
2018-12-07T03:34:30.836Z,100380.11
2018-12-07T03:35:02.078Z,100373.28
2018-12-07T03:35:33.208Z,100377.97
2018-12-07T03:36:04.441Z,100372.42
2018-12-07T03:36:35.610Z,100374.98
2018-12-07T03:37:06.726Z,100373.67
2018-12-07T03:37:37.842Z,100373.63
2018-12-07T03:38:08.990Z,100373.28
2018-12-07T03:38:40.106Z,100372.39
2018-12-07T03:39:11.222Z,100378.79
2018-12-07T03:39:42.330Z,100379.22
2018-12-07T03:40:13.460Z,100382.59
2018-12-07T03:40:44.591Z,100380.49
2018-12-07T03:41:15.753Z,100381.67
2018-12-07T03:41:46.941Z,100382.87
2018-12-07T03:42:18.087Z,100384.51
2018-12-07T03:42:49.237Z,100389.63
2018-12-07T03:43:20.371Z,100383.20
2018-12-07T03:43:51.499Z,100387.89
2018-12-07T03:44:22.676Z,100389.17
2018-12-07T03:44:53.784Z,100388.35
2018-12-07T03:45:24.914Z,100389.63
2018-12-07T03:45:56.038Z,100389.63
2018-12-07T03:46:27.197Z,100391.27
2018-12-07T03:46:58.358Z,100393.83
2018-12-07T03:47:29.549Z,100385.29
2018-12-07T03:48:01.711Z,100395.45
2018-12-07T03:48:32.845Z,100393.29
2018-12-07T03:49:03.979Z,100392.36
2018-12-07T03:49:35.124Z,100397.48
2018-12-07T03:50:06.238Z,100394.06
2018-12-07T03:50:37.367Z,100394.06
2018-12-07T03:51:08.476Z,100392.75
2018-12-07T03:51:39.639Z,100392.36
2018-12-07T03:52:10.829Z,100391.94
2018-12-07T03:52:41.961Z,100389.77
2018-12-07T03:53:13.085Z,100388.91
2018-12-07T03:53:44.219Z,100396.91
2018-12-07T03:54:15.474Z,100392.45
2018-12-07T03:54:46.586Z,100395.02
2018-12-07T03:55:17.830Z,100395.44
2018-12-07T03:55:49.077Z,100396.68
2018-12-07T03:56:21.168Z,100397.14
2018-12-07T03:56:52.281Z,100395.41
2018-12-07T03:57:23.406Z,100397.03
2018-12-07T03:57:54.556Z,100393.89
2018-12-07T03:58:25.672Z,100398.94
2018-12-07T03:58:56.824Z,100391.65
2018-12-07T03:59:27.995Z,100274.80
2018-12-07T03:59:59.118Z,100390.64
2018-12-07T04:00:30.264Z,100393.55
2018-12-07T04:01:01.419Z,100392.73
2018-12-07T04:01:32.578Z,100394.83
2018-12-07T04:02:03.709Z,100391.34
2018-12-07T04:02:34.862Z,100393.44
2018-12-07T04:03:05.976Z,100399.02
2018-12-07T04:03:37.097Z,100397.55
2018-12-07T04:04:08.204Z,100399.64
2018-12-07T04:04:39.352Z,100403.95
2018-12-07T04:05:10.481Z,100401.81
2018-12-07T04:05:41.746Z,100404.76
2018-12-07T04:06:12.901Z,100410.72
2018-12-07T04:06:44.021Z,100409.17
2018-12-07T04:07:15.130Z,100405.80
2018-12-07T04:07:46.249Z,100410.06
2018-12-07T04:08:17.544Z,100402.86
2018-12-07T04:08:48.653Z,100414.83
2018-12-07T04:09:19.764Z,100410.53
2018-12-07T04:09:50.881Z,100411.46
2018-12-07T04:10:22.116Z,100413.59
2018-12-07T04:10:53.252Z,100405.88
2018-12-07T04:11:24.428Z,100410.22
2018-12-07T04:11:55.568Z,100408.94
2018-12-07T04:12:26.684Z,100406.42
2018-12-07T04:12:57.802Z,100410.27
2018-12-07T04:13:28.929Z,100408.55
2018-12-07T04:14:00.052Z,100389.91
2018-12-07T04:14:31.297Z,100415.49
2018-12-07T04:15:02.750Z,100413.44
2018-12-07T04:15:33.899Z,100410.84
2018-12-07T04:16:05.039Z,100414.30
2018-12-07T04:16:36.196Z,100412.63
2018-12-07T04:17:07.321Z,100409.64
2018-12-07T04:17:38.452Z,100415.69
2018-12-07T04:18:09.575Z,100409.60
2018-12-07T04:18:40.716Z,100412.94
2018-12-07T04:19:11.836Z,100410.92
2018-12-07T04:19:42.969Z,100414.88
2018-12-07T04:20:14.080Z,100405.91
2018-12-07T04:20:45.204Z,100405.84
2018-12-07T04:21:16.316Z,100411.53
2018-12-07T04:21:47.465Z,100407.19
2018-12-07T04:22:18.604Z,100404.67
2018-12-07T04:22:49.755Z,100404.25
2018-12-07T04:23:20.876Z,100398.66
2018-12-07T04:23:51.997Z,100400.41
2018-12-07T04:24:23.125Z,100395.21
2018-12-07T04:24:54.298Z,100394.40
2018-12-07T04:25:25.485Z,100403.39
2018-12-07T04:25:56.631Z,100401.65
2018-12-07T04:26:27.749Z,100398.66
2018-12-07T04:26:58.887Z,100402.15
2018-12-07T04:27:30.000Z,100405.98
2018-12-07T04:28:01.126Z,100401.61
2018-12-07T04:28:32.258Z,100401.69
2018-12-07T04:29:03.382Z,100402.97
2018-12-07T04:29:34.502Z,100397.89
2018-12-07T04:30:05.614Z,100402.19
2018-12-07T04:30:36.740Z,100398.34
2018-12-07T04:31:08.527Z,100407.27
2018-12-07T04:31:39.748Z,100402.61
2018-12-07T04:32:10.879Z,100401.30
2018-12-07T04:32:42.112Z,100404.28
2018-12-07T04:33:13.326Z,100402.15
2018-12-07T04:33:44.446Z,100398.66
2018-12-07T04:34:15.565Z,100401.34
2018-12-07T04:34:46.688Z,100404.83
2018-12-07T04:35:17.813Z,100404.36
2018-12-07T04:35:48.938Z,100401.84
2018-12-07T04:36:20.045Z,100409.02
2018-12-07T04:36:51.162Z,100405.98
2018-12-07T04:37:22.269Z,100409.83
2018-12-07T04:37:53.434Z,100409.41
2018-12-07T04:38:24.555Z,100412.39
2018-12-07T04:38:57.311Z,100410.30
2018-12-07T04:39:28.436Z,100409.75
2018-12-07T04:39:59.545Z,100406.30
2018-12-07T04:40:30.674Z,100404.98
2018-12-07T04:41:01.808Z,100411.42
2018-12-07T04:41:32.950Z,100408.01
2018-12-07T04:42:04.078Z,100409.99
2018-12-07T04:42:35.201Z,100405.30
2018-12-07T04:43:06.378Z,100406.42
2018-12-07T04:43:37.489Z,100412.01
2018-12-07T04:44:08.606Z,100411.19
2018-12-07T04:44:39.713Z,100407.70
2018-12-07T04:45:10.845Z,100400.48
2018-12-07T04:45:42.015Z,100410.33
2018-12-07T04:46:13.127Z,100403.09
2018-12-07T04:46:44.242Z,100404.37
2018-12-07T04:47:15.343Z,100400.99
2018-12-07T04:47:46.616Z,100403.98
2018-12-07T04:48:17.805Z,100401.45
2018-12-07T04:48:49.835Z,100401.88
2018-12-07T04:49:20.958Z,100407.43
2018-12-07T04:49:52.087Z,100401.45
2018-12-07T04:50:23.249Z,100404.48
2018-12-07T04:50:54.387Z,100402.39
2018-12-07T04:51:25.762Z,100403.70
2018-12-07T04:51:57.442Z,100401.96
2018-12-07T04:52:29.168Z,100407.55
2018-12-07T04:53:00.347Z,100403.23
2018-12-07T04:53:32.210Z,100407.19
2018-12-07T04:54:03.337Z,100409.28
2018-12-07T04:54:34.465Z,100413.09
2018-12-07T04:55:05.622Z,100409.64
2018-12-07T04:55:36.844Z,100407.43
2018-12-07T04:56:08.019Z,100406.53
2018-12-07T04:56:39.162Z,100410.33
2018-12-07T04:57:10.431Z,100410.27
2018-12-07T04:57:41.580Z,100408.17
2018-12-07T04:58:13.657Z,100408.09
2018-12-07T04:58:44.801Z,100405.53
2018-12-07T04:59:15.968Z,100409.83
2018-12-07T04:59:47.126Z,100405.11
2018-12-07T05:00:18.254Z,100411.92
2018-12-07T05:00:49.413Z,100408.09
2018-12-07T05:01:20.530Z,100411.92
2018-12-07T05:01:51.639Z,100408.48
2018-12-07T05:02:22.762Z,100411.92
2018-12-07T05:02:53.879Z,100407.63
2018-12-07T05:03:24.999Z,100408.44
2018-12-07T05:03:56.105Z,100408.48
2018-12-07T05:04:27.233Z,100408.02
2018-12-07T05:04:58.358Z,100406.30
2018-12-07T05:05:29.482Z,100405.41
2018-12-07T05:06:00.625Z,100405.06
2018-12-07T05:06:31.728Z,100399.13
2018-12-07T05:07:02.867Z,100405.99
2018-12-07T05:07:34.009Z,100402.59
2018-12-07T05:08:05.170Z,100401.77
2018-12-07T05:08:36.500Z,100405.99
2018-12-07T05:09:07.608Z,100401.69
2018-12-07T05:09:38.722Z,100401.58
2018-12-07T05:10:09.881Z,100403.28
2018-12-07T05:10:41.030Z,100402.82
2018-12-07T05:11:12.141Z,100404.45
2018-12-07T05:11:43.311Z,100399.25
2018-12-07T05:12:15.675Z,100408.20
2018-12-07T05:12:46.805Z,100408.20
2018-12-07T05:13:17.933Z,100409.02
2018-12-07T05:13:49.057Z,100408.59
2018-12-07T05:14:20.193Z,100403.48
2018-12-07T05:14:51.333Z,100403.44
2018-12-07T05:15:22.456Z,100406.89
2018-12-07T05:15:53.610Z,100412.86
2018-12-07T05:16:24.764Z,100408.25
2018-12-07T05:16:55.951Z,100403.09
2018-12-07T05:17:27.127Z,100414.98
2018-12-07T05:17:58.270Z,100414.14
2018-12-07T05:18:29.439Z,100417.47
2018-12-07T05:19:00.580Z,100414.80
2018-12-07T05:19:31.783Z,100419.32
2018-12-07T05:20:02.936Z,100418.81
2018-12-07T05:20:34.144Z,100421.72
2018-12-07T05:21:05.320Z,100424.12
2018-12-07T05:21:36.552Z,100427.91
2018-12-07T05:22:07.707Z,100429.66
2018-12-07T05:22:38.920Z,100425.78
2018-12-07T05:23:10.072Z,100430.08
2018-12-07T05:23:41.194Z,100435.58
2018-12-07T05:24:12.307Z,100430.00
2018-12-07T05:24:43.476Z,100430.85
2018-12-07T05:25:14.630Z,100427.88
2018-12-07T05:25:45.746Z,100432.21
2018-12-07T05:26:16.870Z,100430.94
2018-12-07T05:26:48.006Z,100433.50
2018-12-07T05:27:19.183Z,100432.13
2018-12-07T05:27:50.303Z,100433.41
2018-12-07T05:28:21.525Z,100433.41
2018-12-07T05:28:52.642Z,100433.80
2018-12-07T05:29:23.810Z,100431.75
2018-12-07T05:29:54.950Z,100429.66
2018-12-07T05:30:26.059Z,100421.64
2018-12-07T05:30:57.197Z,100428.11
2018-12-07T05:31:28.330Z,100429.05
2018-12-07T05:31:59.449Z,100431.18
2018-12-07T05:32:30.563Z,100430.33
2018-12-07T05:33:01.690Z,100429.86
2018-12-07T05:33:32.810Z,100436.25
2018-12-07T05:34:03.934Z,100437.95
2018-12-07T05:34:35.085Z,100431.95
2018-12-07T05:35:06.188Z,100432.77
2018-12-07T05:35:37.309Z,100436.67
2018-12-07T05:36:08.461Z,100432.33
2018-12-07T05:36:39.581Z,100437.02
2018-12-07T05:37:10.697Z,100438.73
2018-12-07T05:37:41.825Z,100436.17
2018-12-07T05:38:12.940Z,100431.87
2018-12-07T05:38:44.057Z,100430.20
2018-12-07T05:39:15.183Z,100431.87
2018-12-07T05:39:46.333Z,100435.23
2018-12-07T05:40:17.448Z,100425.40
2018-12-07T05:40:48.577Z,100439.08
2018-12-07T05:41:19.707Z,100433.14
2018-12-07T05:41:50.837Z,100436.52
2018-12-07T05:42:21.961Z,100438.26
2018-12-07T05:42:53.109Z,100438.73
2018-12-07T05:43:24.229Z,100440.90
2018-12-07T05:43:55.340Z,100434.89
2018-12-07T05:44:26.520Z,100436.59
2018-12-07T05:44:58.275Z,100437.06
2018-12-07T05:45:29.415Z,100436.72
2018-12-07T05:46:00.537Z,100436.67
2018-12-07T05:46:31.752Z,100433.19
2018-12-07T05:47:03.272Z,100436.21
2018-12-07T05:47:34.442Z,100436.56
2018-12-07T05:48:05.618Z,100436.52
2018-12-07T05:48:36.732Z,100435.62
2018-12-07T05:49:07.844Z,100442.09
2018-12-07T05:49:38.952Z,100444.27
2018-12-07T05:50:10.080Z,100443.46
2018-12-07T05:50:41.235Z,100440.09
2018-12-07T05:51:12.398Z,100442.64
2018-12-07T05:51:43.525Z,100436.25
2018-12-07T05:52:14.634Z,100439.16
2018-12-07T05:52:45.787Z,100437.84
2018-12-07T05:53:16.902Z,100434.81
2018-12-07T05:53:48.041Z,100435.32
2018-12-07T05:54:19.197Z,100433.70
2018-12-07T05:54:50.299Z,100441.41
2018-12-07T05:55:21.417Z,100435.95